createdAt,value
2022-12-28T00:03:26.699Z,1.71
2022-12-28T00:08:28.018Z,1.64
2022-12-28T00:13:29.334Z,1.46
2022-12-28T00:18:30.619Z,1.38
2022-12-28T00:23:31.872Z,1.39
2022-12-28T00:28:33.137Z,1.39
2022-12-28T00:33:34.387Z,1.40
2022-12-28T00:38:35.678Z,1.37
2022-12-28T00:43:36.936Z,1.39
2022-12-28T00:48:38.325Z,1.33
2022-12-28T00:53:39.642Z,1.49
2022-12-28T00:58:40.909Z,1.23
2022-12-28T01:03:42.209Z,0.85
2022-12-28T01:08:43.473Z,1.04
2022-12-28T01:13:44.743Z,1.02
2022-12-28T01:18:46.017Z,0.92
2022-12-28T01:23:47.241Z,1.11
2022-12-28T01:28:48.555Z,1.22
2022-12-28T01:33:49.830Z,1.27
2022-12-28T01:38:51.097Z,0.85
2022-12-28T01:43:52.334Z,0.90
2022-12-28T01:48:53.567Z,0.97
2022-12-28T01:53:54.845Z,1.06
2022-12-28T01:58:56.089Z,0.79
2022-12-28T02:03:57.404Z,0.76
2022-12-28T02:08:58.674Z,0.78
2022-12-28T02:13:59.973Z,0.99
2022-12-28T02:19:01.267Z,0.76
2022-12-28T02:24:02.515Z,0.82
2022-12-28T02:29:03.783Z,0.88
2022-12-28T02:34:05.047Z,1.00
2022-12-28T02:39:06.314Z,1.13
2022-12-28T02:44:07.602Z,1.22
2022-12-28T02:49:27.607Z,1.22
2022-12-28T02:54:47.465Z,1.39
2022-12-28T02:59:48.742Z,1.46
2022-12-28T03:04:50.214Z,1.42
2022-12-28T03:09:51.478Z,1.59
2022-12-28T03:14:55.780Z,1.42
2022-12-28T03:20:15.992Z,1.46
2022-12-28T03:25:35.805Z,1.45
2022-12-28T03:30:55.953Z,1.51
2022-12-28T03:35:57.236Z,1.51
2022-12-28T03:40:58.513Z,1.48
2022-12-28T03:45:59.808Z,1.17
2022-12-28T03:51:01.418Z,1.13
2022-12-28T03:56:02.741Z,1.15
2022-12-28T04:01:04.065Z,1.12
2022-12-28T04:06:05.366Z,1.23
2022-12-28T04:11:06.635Z,1.34
2022-12-28T04:16:07.988Z,1.34
2022-12-28T04:21:09.320Z,1.22
2022-12-28T04:26:11.548Z,1.34
2022-12-28T04:31:12.847Z,1.28
2022-12-28T04:36:14.223Z,1.35
2022-12-28T04:41:15.462Z,1.24
2022-12-28T04:46:16.880Z,1.19
2022-12-28T04:51:18.171Z,1.22
2022-12-28T04:56:19.411Z,1.46
2022-12-28T05:01:20.738Z,1.49
2022-12-28T05:06:22.091Z,0.98
2022-12-28T05:11:23.396Z,1.00
2022-12-28T05:16:24.816Z,0.91
2022-12-28T05:21:26.101Z,0.82
2022-12-28T05:26:27.402Z,1.04
2022-12-28T05:31:28.793Z,0.92
2022-12-28T05:36:32.690Z,1.07
2022-12-28T05:41:34.090Z,1.13
2022-12-28T05:46:36.684Z,1.24
2022-12-28T05:51:39.814Z,1.51
2022-12-28T05:56:41.540Z,1.59
2022-12-28T06:01:42.919Z,1.29
2022-12-28T06:06:44.327Z,1.03
2022-12-28T06:11:46.163Z,1.02
2022-12-28T06:16:47.484Z,1.10
2022-12-28T06:21:48.800Z,1.03
2022-12-28T06:26:51.203Z,0.91
2022-12-28T06:31:53.904Z,1.02
2022-12-28T06:36:56.686Z,0.85
2022-12-28T06:41:57.991Z,0.78
2022-12-28T06:46:59.240Z,1.03
2022-12-28T06:52:00.608Z,1.22
2022-12-28T06:57:02.218Z,1.34
2022-12-28T07:02:03.839Z,1.30
2022-12-28T07:07:05.254Z,1.34
2022-12-28T07:12:06.569Z,1.53
2022-12-28T07:17:08.367Z,1.62
2022-12-28T07:22:09.682Z,1.77
2022-12-28T07:27:10.963Z,1.70
2022-12-28T07:32:13.203Z,1.53
2022-12-28T07:37:15.721Z,1.70
2022-12-28T07:42:16.968Z,1.66
2022-12-28T07:47:18.287Z,1.78
2022-12-28T07:52:19.533Z,2.91
2022-12-28T07:57:20.743Z,2.45
2022-12-28T08:02:22.110Z,2.35
2022-12-28T08:07:23.725Z,1.96
2022-12-28T08:12:25.003Z,2.14
2022-12-28T08:17:26.251Z,2.29
2022-12-28T08:22:27.461Z,1.94
2022-12-28T08:27:32.243Z,2.08
2022-12-28T08:32:36.311Z,2.26
2022-12-28T08:37:37.579Z,2.44
2022-12-28T08:42:39.008Z,2.55
2022-12-28T08:47:40.377Z,2.53
2022-12-28T08:52:42.097Z,2.67
2022-12-28T08:57:43.355Z,2.83
2022-12-28T09:02:44.774Z,3.05
2022-12-28T09:07:46.107Z,3.01
2022-12-28T09:12:47.358Z,3.05
2022-12-28T09:17:48.610Z,3.25
2022-12-28T09:22:49.818Z,3.48
2022-12-28T09:27:56.009Z,3.40
2022-12-28T09:33:19.075Z,3.41
2022-12-28T09:38:20.344Z,3.32
2022-12-28T09:43:21.563Z,3.20
2022-12-28T09:48:23.092Z,3.39
2022-12-28T09:53:24.642Z,3.30
2022-12-28T09:58:25.935Z,3.57
2022-12-28T10:03:27.239Z,3.56
2022-12-28T10:08:28.591Z,3.28
2022-12-28T10:13:53.447Z,3.39
2022-12-28T10:18:51.103Z,3.41
2022-12-28T10:29:13.517Z,3.57
2022-12-28T10:34:14.832Z,3.55
2022-12-28T10:39:16.525Z,3.78
2022-12-28T10:44:38.782Z,3.96
2022-12-28T10:49:43.885Z,4.10
2022-12-28T10:55:07.471Z,4.24
2022-12-28T11:00:09.799Z,4.30
2022-12-28T11:05:11.041Z,4.48
2022-12-28T11:10:12.329Z,4.61
2022-12-28T11:15:13.579Z,4.84
2022-12-28T11:20:14.904Z,4.73
2022-12-28T11:25:18.267Z,4.66
2022-12-28T11:30:19.657Z,4.93
2022-12-28T11:35:21.639Z,5.07
2022-12-28T11:40:24.389Z,4.83
2022-12-28T11:45:25.696Z,5.02
2022-12-28T11:50:26.947Z,5.60
2022-12-28T11:55:28.151Z,6.05
2022-12-28T12:00:29.495Z,9.16
2022-12-28T12:05:30.773Z,7.86
2022-12-28T12:10:33.653Z,7.34
2022-12-28T12:15:35.031Z,6.68
2022-12-28T12:20:36.526Z,6.71
2022-12-28T12:25:37.782Z,7.17
2022-12-28T12:30:39.182Z,6.97
2022-12-28T12:35:40.509Z,6.56
2022-12-28T12:40:42.114Z,6.60
2022-12-28T12:45:43.383Z,6.61
2022-12-28T12:50:44.958Z,6.50
2022-12-28T12:55:46.333Z,6.71
2022-12-28T13:00:49.009Z,7.53
2022-12-28T13:05:50.366Z,8.06
2022-12-28T13:10:51.579Z,8.00
2022-12-28T13:15:52.899Z,8.01
2022-12-28T13:20:54.244Z,8.10
2022-12-28T13:25:55.517Z,8.32
2022-12-28T13:30:56.804Z,8.07
2022-12-28T13:35:58.022Z,8.00
2022-12-28T13:40:59.222Z,8.13
2022-12-28T13:46:00.503Z,7.65
2022-12-28T13:51:01.727Z,7.43
2022-12-28T13:56:03.109Z,7.13
2022-12-28T14:01:04.490Z,6.91
2022-12-28T14:06:06.410Z,6.66
2022-12-28T14:11:07.653Z,6.43
2022-12-28T14:16:08.977Z,6.57
2022-12-28T14:21:10.251Z,6.36
2022-12-28T14:26:11.505Z,6.49
2022-12-28T14:31:12.795Z,6.57
2022-12-28T14:36:14.534Z,6.59
2022-12-28T14:41:15.801Z,6.40
2022-12-28T14:46:19.037Z,6.40
2022-12-28T14:51:20.380Z,6.50
2022-12-28T14:56:21.678Z,6.42
2022-12-28T15:01:23.286Z,6.35
2022-12-28T15:06:24.694Z,6.34
2022-12-28T15:11:25.996Z,6.34
2022-12-28T15:16:27.377Z,6.47
2022-12-28T15:21:28.816Z,6.21
2022-12-28T15:26:30.716Z,6.04
2022-12-28T15:31:32.007Z,5.96
2022-12-28T15:36:33.294Z,5.99
2022-12-28T15:41:46.985Z,6.29
2022-12-28T15:46:51.369Z,6.24
2022-12-28T15:51:52.772Z,6.41
2022-12-28T15:56:54.037Z,6.52
2022-12-28T16:01:55.422Z,6.60
2022-12-28T16:06:56.791Z,6.45
2022-12-28T16:11:58.063Z,6.59
2022-12-28T16:16:59.435Z,5.89
2022-12-28T16:22:00.910Z,6.08
2022-12-28T16:27:02.212Z,6.17
2022-12-28T16:32:03.544Z,6.16
2022-12-28T16:37:04.958Z,6.07
2022-12-28T16:42:06.745Z,6.15
2022-12-28T16:47:08.094Z,6.18
2022-12-28T16:52:09.501Z,6.28
2022-12-28T16:57:10.728Z,6.23
2022-12-28T17:02:12.104Z,6.19
2022-12-28T17:07:13.448Z,6.35
2022-12-28T17:12:14.695Z,6.20
2022-12-28T17:17:15.905Z,6.07
2022-12-28T17:22:17.144Z,5.96
2022-12-28T17:27:19.476Z,5.87
2022-12-28T17:32:20.940Z,5.79
2022-12-28T17:37:22.393Z,5.72
2022-12-28T17:42:23.671Z,5.90
2022-12-28T17:47:25.562Z,5.87
2022-12-28T17:52:26.886Z,5.83
2022-12-28T17:57:28.106Z,5.91
2022-12-28T18:02:29.567Z,5.74
2022-12-28T18:07:30.930Z,5.66
2022-12-28T18:12:32.196Z,5.65
2022-12-28T18:17:33.493Z,5.61
2022-12-28T18:22:34.777Z,5.38
2022-12-28T18:27:36.718Z,5.43
2022-12-28T18:32:38.022Z,5.36
2022-12-28T18:37:39.242Z,5.01
2022-12-28T18:42:40.463Z,4.92
2022-12-28T18:47:41.682Z,4.79
2022-12-28T18:52:42.972Z,4.81
2022-12-28T18:57:44.287Z,4.82
2022-12-28T19:02:45.588Z,4.69
2022-12-28T19:07:49.502Z,4.73
2022-12-28T19:12:51.130Z,4.72
2022-12-28T19:17:52.760Z,4.69
2022-12-28T19:22:54.116Z,4.60
2022-12-28T19:27:56.690Z,4.61
2022-12-28T19:32:57.993Z,4.47
2022-12-28T19:38:01.551Z,4.44
2022-12-28T19:43:05.245Z,4.29
2022-12-28T19:48:06.871Z,4.14
2022-12-28T19:53:08.519Z,4.14
2022-12-28T19:58:13.104Z,4.07
2022-12-28T20:03:17.859Z,4.04
2022-12-28T20:08:19.212Z,4.03
2022-12-28T20:13:20.456Z,3.92
2022-12-28T20:18:21.796Z,3.93
2022-12-28T20:23:23.168Z,3.89
2022-12-28T20:28:24.559Z,3.71
2022-12-28T20:33:25.783Z,3.74
2022-12-28T20:38:27.052Z,3.84
2022-12-28T20:43:28.424Z,3.72
2022-12-28T20:48:29.745Z,3.57
2022-12-28T20:53:31.078Z,3.38
2022-12-28T20:58:32.401Z,3.44
2022-12-28T21:03:33.728Z,3.50
2022-12-28T21:08:35.118Z,3.50
2022-12-28T21:13:42.262Z,3.53
2022-12-28T21:18:45.078Z,3.64
2022-12-28T21:23:46.315Z,3.67
2022-12-28T21:28:47.730Z,3.54
2022-12-28T21:33:49.015Z,3.26
2022-12-28T21:38:50.333Z,3.40
2022-12-28T21:43:51.620Z,3.43
2022-12-28T21:48:52.851Z,3.65
2022-12-28T21:53:54.163Z,3.69
2022-12-28T21:58:55.423Z,3.57
2022-12-28T22:04:15.524Z,3.53
2022-12-28T22:09:36.626Z,3.32
2022-12-28T22:14:37.945Z,3.43
2022-12-28T22:19:39.285Z,3.37
2022-12-28T22:24:40.661Z,3.37
2022-12-28T22:29:41.947Z,3.36
2022-12-28T22:34:43.204Z,3.48
2022-12-28T22:39:44.513Z,3.38
2022-12-28T22:44:45.764Z,3.36
2022-12-28T22:49:47.043Z,3.01
2022-12-28T22:54:48.290Z,3.01
2022-12-28T22:59:49.511Z,3.17
2022-12-28T23:04:50.792Z,3.25
2022-12-28T23:09:52.118Z,3.13
2022-12-28T23:15:12.055Z,2.86
2022-12-28T23:20:32.079Z,3.23
2022-12-28T23:25:52.089Z,3.15
2022-12-28T23:30:53.423Z,3.05
2022-12-28T23:35:54.736Z,3.40
2022-12-28T23:41:15.906Z,3.44
2022-12-28T23:46:17.215Z,3.55
2022-12-28T23:51:18.695Z,3.34
2022-12-28T23:56:20.022Z,3.47
